Terminal Aerodrome Forecast
Issued by NWS Twin Cities, MN

Home | Current Version | Previous Version | Graphics & Text | Print | Product List | Glossary On
Versions: 1 2 3 4 5 6 7 8 9 10 11 12 13 14
000
FTUS43 KMPX 180500
TAFSTC
TAF
KSTC 180529Z 1806/1906 34007KT P6SM BKN025
     FM181500 VRB03KT P6SM SCT020
     FM182200 17004KT P6SM SCT250=

USA.gov is the U.S. government's official web portal to all federal, state and local government web resources and services.